Map

Track Data

SID SEASON NUMBER BASIN SUBBASIN NAME ISO_TIME NATURE LAT LON WMO_WIND WMO_PRES WMO_AGENCY TRACK_TYPE DIST2LAND LANDFALL IFLAG USA_AGENCY USA_ATCF_ID USA_LAT USA_LON USA_RECORD USA_STATUS USA_WIND USA_PRES USA_SSHS USA_R34_NE USA_R34_SE USA_R34_SW USA_R34_NW USA_R50_NE USA_R50_SE USA_R50_SW USA_R50_NW USA_R64_NE USA_R64_SE USA_R64_SW USA_R64_NW USA_POCI USA_ROCI USA_RMW USA_EYE TOKYO_LAT TOKYO_LON TOKYO_GRADE TOKYO_WIND TOKYO_PRES TOKYO_R50_DIR TOKYO_R50_LONG TOKYO_R50_SHORT TOKYO_R30_DIR TOKYO_R30_LONG TOKYO_R30_SHORT TOKYO_LAND CMA_LAT CMA_LON CMA_CAT CMA_WIND CMA_PRES HKO_LAT HKO_LON HKO_CAT HKO_WIND HKO_PRES NEWDELHI_LAT NEWDELHI_LON NEWDELHI_GRADE NEWDELHI_WIND NEWDELHI_PRES NEWDELHI_CI NEWDELHI_DP NEWDELHI_POCI REUNION_LAT REUNION_LON REUNION_TYPE REUNION_WIND REUNION_PRES REUNION_TNUM REUNION_CI REUNION_RMW REUNION_R34_NE REUNION_R34_SE REUNION_R34_SW REUNION_R34_NW REUNION_R50_NE REUNION_R50_SE REUNION_R50_SW REUNION_R50_NW REUNION_R64_NE REUNION_R64_SE REUNION_R64_SW REUNION_R64_NW BOM_LAT BOM_LON BOM_TYPE BOM_WIND BOM_PRES BOM_TNUM BOM_CI BOM_RMW BOM_R34_NE BOM_R34_SE BOM_R34_SW BOM_R34_NW BOM_R50_NE BOM_R50_SE BOM_R50_SW BOM_R50_NW BOM_R64_NE BOM_R64_SE BOM_R64_SW BOM_R64_NW BOM_ROCI BOM_POCI BOM_EYE BOM_POS_METHOD BOM_PRES_METHOD NADI_LAT NADI_LON NADI_CAT NADI_WIND NADI_PRES WELLINGTON_LAT WELLINGTON_LON WELLINGTON_WIND WELLINGTON_PRES DS824_LAT DS824_LON DS824_STAGE DS824_WIND DS824_PRES TD9636_LAT TD9636_LON TD9636_STAGE TD9636_WIND TD9636_PRES TD9635_LAT TD9635_LON TD9635_WIND TD9635_PRES TD9635_ROCI NEUMANN_LAT NEUMANN_LON NEUMANN_CLASS NEUMANN_WIND NEUMANN_PRES MLC_LAT MLC_LON MLC_CLASS MLC_WIND MLC_PRES USA_GUST BOM_GUST BOM_GUST_PER REUNION_GUST REUNION_GUST_PER USA_SEAHGT USA_SEARAD_NE USA_SEARAD_SE USA_SEARAD_SW USA_SEARAD_NW STORM_SPEED STORM_DIR
2016353S11130 2017 94 SI WA NOT_NAMED 2016-12-18 06:00:00 NR -10.5000 129.500 15 1004 bom main 126 117 ______O_______ -5 -10.5000 129.500 10 15 1004 1008 45 45 6 216
2016353S11130 2017 94 SI WA NOT_NAMED 2016-12-18 09:00:00 NR -10.7550 129.310 main 117 110 ______P_______ -5 -10.7550 129.310 10 15 1005 1008 6 210
2016353S11130 2017 94 SI WA NOT_NAMED 2016-12-18 12:00:00 NR -11.0000 129.200 15 1006 bom main 113 103 ______O_______ -5 -11.0000 129.200 10 15 1006 1008 45 45 5 191
2016353S11130 2017 94 SI WA NOT_NAMED 2016-12-18 15:00:00 NR -11.2225 129.220 main 103 87 ______P_______ -5 -11.2225 129.220 10 15 1005 1008 4 167
2016353S11130 2017 94 SI WA NOT_NAMED 2016-12-18 18:00:00 NR -11.4000 129.300 15 1004 bom main 87 87 ______O_______ -5 -11.4000 129.300 20 15 1004 119 1008 45 45 3 159
2016353S11130 2017 94 SI WA NOT_NAMED 2016-12-18 21:00:00 NR -11.5225 129.343 main 87 76 ______P_______ -5 -11.5225 129.343 20 15 1003 119 1008 2 153
2016353S11130 2017 94 SI WA NOT_NAMED 2016-12-19 00:00:00 NR -11.6000 129.400 15 1003 bom main 77 66 ______O_______ -5 -11.6000 129.400 20 15 1003 119 1008 45 45 2 131
2016353S11130 2017 94 SI WA NOT_NAMED 2016-12-19 03:00:00 NR -11.6575 129.500 main 66 55 ______P_______ -5 -11.6575 129.500 20 15 1002 119 1007 2 117
2016353S11130 2017 94 SI WA NOT_NAMED 2016-12-19 06:00:00 NR -11.7000 129.600 15 1002 bom main 55 44 ______O_______ -5 -11.7000 129.600 20 15 1002 119 1006 45 45 2 115
2016353S11130 2017 94 SI WA NOT_NAMED 2016-12-19 09:00:00 NR -11.7350 129.665 main 44 43 ______P_______ -5 -11.7350 129.665 20 15 1002 119 1006 1 137
2016353S11130 2017 94 SI WA NOT_NAMED 2016-12-19 12:00:00 NR -11.8000 129.700 15 1003 bom main 43 43 ______O_______ -5 -11.8000 129.700 20 15 1003 119 1006 45 45 2 159
2016353S11130 2017 94 SI WA NOT_NAMED 2016-12-19 15:00:00 NR -11.9275 129.730 main 44 44 ______P_______ -5 -11.9275 129.730 20 15 1001 134 1006 3 0
2016353S11130 2017 94 SI WA NOT_NAMED 2016-12-19 18:00:00 NR -12.1000 129.700 15 1000 bom main 54 54 ______O_______ -5 -12.1000 129.700 20 15 1000 150 1006 34 34 4 203
2016353S11130 2017 94 SI WA NOT_NAMED 2016-12-19 21:00:00 NR -12.2850 129.580 main 78 78 ______P_______ -5 -12.2850 129.580 20 17 1000 150 1006 5 216
2016353S11130 2017 94 SI WA NOT_NAMED 2016-12-20 00:00:00 NR -12.5000 129.400 20 1000 bom main 94 93 ______O_______ -5 -12.5000 129.400 20 20 1000 1.00000 1.00000 150 1006 45 45 6 220
2016353S11130 2017 94 SI WA NOT_NAMED 2016-12-20 03:00:00 NR -12.7200 129.200 main 103 100 ______P_______ -5 -12.7200 129.200 20 20 998 150 1005 6 218
2016353S11130 2017 94 SI WA NOT_NAMED 2016-12-20 06:00:00 NR -13.0000 129.000 20 997 bom main 103 97 ______O_______ -5 -13.0000 129.000 20 20 997 1.00000 1.00000 150 1004 45 45 7 209
2016353S11130 2017 94 SI WA NOT_NAMED 2016-12-20 09:00:00 NR -13.3700 128.835 main 108 94 ______P_______ -5 -13.3700 128.835 20 20 997 150 1004 9 200
2016353S11130 2017 94 SI WA NOT_NAMED 2016-12-20 12:00:00 NR -13.8000 128.700 20 997 bom main 94 70 ______O_______ -5 -13.8000 128.700 20 20 997 1.50000 1.50000 150 1004 45 45 9 195
2016353S11130 2017 94 SI WA NOT_NAMED 2016-12-20 15:00:00 NR -14.2329 128.593 main 70 22 ______P_______ -5 -14.2329 128.593 20 25 996 150 1004 9 192
2016353S11130 2017 94 SI WA NOT_NAMED 2016-12-20 18:00:00 NR -14.7000 128.500 30 995 bom main 22 0 ______O_______ -5 -14.7000 128.500 20 30 995 2.00000 2.00000 150 1004 45 45 10 191
2016353S11130 2017 94 SI WA NOT_NAMED 2016-12-20 21:00:00 NR -15.2000 128.400 30 996 bom main 0 0 ______O_______ -5 -15.2000 128.400 20 30 996 150 1004 45 45 8 194
2016353S11130 2017 94 SI WA NOT_NAMED 2016-12-21 00:00:00 NR -15.5000 128.300 30 997 bom main 0 0 ______O_______ -5 -15.5000 128.300 20 30 997 150 1006 45 45 6 204
2016353S11130 2017 94 SI WA NOT_NAMED 2016-12-21 03:00:00 NR -15.7000 128.167 main 0 0 ______P_______ -5 -15.7000 128.167 20 30 996 150 1005 5 216
2016353S11130 2017 94 SI WA NOT_NAMED 2016-12-21 06:00:00 NR -15.9000 128.000 30 996 bom main 0 0 ______O_______ -5 -15.9000 128.000 20 30 996 150 1004 45 45 6 212
2016353S11130 2017 94 SI WA NOT_NAMED 2016-12-21 09:00:00 NR -16.1974 127.845 main 0 0 ______P_______ -5 -16.1974 127.845 20 30 996 150 1004 8 209
2016353S11130 2017 94 SI WA NOT_NAMED 2016-12-21 12:00:00 NR -16.6000 127.600 30 996 bom main 0 0 ______O_______ -5 -16.6000 127.600 20 30 996 150 1004 45 45 12 214
2016353S11130 2017 94 SI WA NOT_NAMED 2016-12-21 15:00:00 NR -17.1652 127.173 main 0 0 ______P_______ -5 -17.1652 127.173 20 30 996 150 1004 14 218
2016353S11130 2017 94 SI WA NOT_NAMED 2016-12-21 18:00:00 NR -17.7000 126.700 30 997 bom main 0 0 ______O_______ -5 -17.7000 126.700 20 30 997 150 1004 45 45 12 223
2016353S11130 2017 94 SI WA NOT_NAMED 2016-12-21 21:00:00 NR -18.0097 126.357 main 0 0 ______P_______ -5 -18.0097 126.357 20 30 996 150 1004 8 233
2016353S11130 2017 94 SI WA NOT_NAMED 2016-12-22 00:00:00 NR -18.2000 126.000 30 996 bom main 0 0 ______O_______ -5 -18.2000 126.000 20 30 996 150 1004 45 45 9 249
2016353S11130 2017 94 SI WA NOT_NAMED 2016-12-22 03:00:00 NR -18.3125 125.522 main 0 0 ______P_______ -5 -18.3125 125.522 20 30 995 150 1003 10 252
2016353S11130 2017 94 SI WA NOT_NAMED 2016-12-22 06:00:00 NR -18.5000 125.000 30 994 bom main 0 0 ______O_______ -5 -18.5000 125.000 20 30 994 150 1002 45 45 12 236
2016353S11130 2017 94 SI WA NOT_NAMED 2016-12-22 09:00:00 NR -19.0002 124.448 main 0 0 ______P_______ -5 -19.0002 124.448 20 30 994 150 1002 14 223
2016353S11130 2017 94 SI WA NOT_NAMED 2016-12-22 12:00:00 NR -19.5000 124.000 30 994 bom main 0 0 ______O_______ -5 -19.5000 124.000 20 30 994 150 1002 45 45 9 224
2016353S11130 2017 94 SI WA NOT_NAMED 2016-12-22 15:00:00 NR -19.6723 123.752 main 0 0 ______P_______ -5 -19.6723 123.752 20 30 994 150 1002 4 223
2016353S11130 2017 94 SI WA NOT_NAMED 2016-12-22 18:00:00 NR -19.8000 123.700 30 994 bom main 0 0 ______O_______ -5 -19.8000 123.700 20 30 994 150 1002 45 45 4 172
2016353S11130 2017 94 SI WA NOT_NAMED 2016-12-22 21:00:00 NR -20.0927 123.807 main 0 0 ______P_______ -5 -20.0927 123.807 20 30 994 150 1002 8 158
2016353S11130 2017 94 SI WA NOT_NAMED 2016-12-23 00:00:00 NR -20.5000 124.000 30 994 bom main 0 ______O_______ -5 -20.5000 124.000 20 30 994 150 1002 45 45 9 156

About IBTrACS Database

This database is a web-friendly format of International Best Track Archive for Climate Stewardship (IBTrACS), a global best track data archive curated by NOAA dating back to 1842.

Updated: 2022-11-16